Check out our new BloomSky Weather System.

Active alerts


No alerts


Thunder radar  blitzortung!


Rain radar more information rain snow radar


Visit our other weather sites:

Template documentation
and downloads

And another site



Weather Underground History page Text

Daily Summary for March 16, 2017 Units:  English    Metric   Both
« Previous Day
Next Day »
Daily Weekly Monthly Yearly Custom
  High: Low: Average:
Temperature: 74.3 °F 54.1 °F 64.8 °F
Dew Point: 66.6 °F 51.8 °F 60.4 °F
Humidity: 94 % 74 % 86 %
Wind Speed: 13.0 mph 0.0 mph 3.6 mph
Wind Gust: 16.0 mph - -
Wind:- - SE
Pressure: 30.30 in 30.14 in -
Precipitation: 0.00 in    
Historical Graphs
 
 
Tabular Data for March 16, 2017
Time Temperature Dew Point Pressure Wind Wind Speed Wind Gust Humidity Rainfall Rate (Hourly)
00:02 55.8 °F 52.3 °F 30.30 in ESE 2.0 mph 5.0 mph 88 % 0.00 in
00:07 55.8 °F 52.3 °F 30.30 in ESE 3.0 mph 5.0 mph 88 % 0.00 in
00:12 55.8 °F 52.3 °F 30.30 in East 6.0 mph 7.0 mph 88 % 0.00 in
00:17 55.8 °F 52.3 °F 30.30 in ESE 3.0 mph 7.0 mph 88 % 0.00 in
00:22 55.8 °F 52.3 °F 30.30 in ESE 1.0 mph 7.0 mph 88 % 0.00 in
00:27 55.8 °F 52.3 °F 30.29 in SE 1.0 mph 6.0 mph 88 % 0.00 in
00:32 55.8 °F 52.3 °F 30.29 in ESE 2.0 mph 5.0 mph 88 % 0.00 in
00:37 55.8 °F 52.3 °F 30.29 in ESE 1.0 mph 5.0 mph 88 % 0.00 in
00:42 55.8 °F 52.5 °F 30.28 in ENE 2.0 mph 5.0 mph 89 % 0.00 in
00:47 55.6 °F 52.3 °F 30.28 in Calm   5.0 mph 89 % 0.00 in
00:52 55.6 °F 52.3 °F 30.28 in ESE 3.0 mph 5.0 mph 89 % 0.00 in
00:57 55.4 °F 52.2 °F 30.28 in SE 1.0 mph 5.0 mph 89 % 0.00 in
01:02 55.2 °F 52.0 °F 30.28 in ESE 1.0 mph 4.0 mph 89 % 0.00 in
01:07 55.2 °F 52.3 °F 30.28 in SE 1.0 mph 5.0 mph 90 % 0.00 in
01:12 55.0 °F 52.2 °F 30.28 in ESE 1.0 mph 5.0 mph 90 % 0.00 in
01:17 55.0 °F 52.2 °F 30.28 in SSE 1.0 mph 5.0 mph 90 % 0.00 in
01:22 55.0 °F 52.2 °F 30.27 in Calm   5.0 mph 90 % 0.00 in
01:27 55.0 °F 52.2 °F 30.27 in Calm   3.0 mph 90 % 0.00 in
01:32 55.0 °F 52.5 °F 30.27 in Calm   3.0 mph 91 % 0.00 in
01:37 54.9 °F 52.0 °F 30.27 in Calm   3.0 mph 90 % 0.00 in
01:42 54.7 °F 52.2 °F 30.27 in Calm   2.0 mph 91 % 0.00 in
01:47 54.7 °F 52.2 °F 30.27 in Calm   2.0 mph 91 % 0.00 in
01:52 54.7 °F 52.2 °F 30.27 in Calm   2.0 mph 91 % 0.00 in
01:57 54.7 °F 52.2 °F 30.27 in NNE 1.0 mph 2.0 mph 91 % 0.00 in
02:02 54.5 °F 52.2 °F 30.27 in Calm   3.0 mph 92 % 0.00 in
02:07 54.5 °F 52.2 °F 30.27 in Calm   3.0 mph 92 % 0.00 in
02:12 54.5 °F 52.2 °F 30.27 in Calm   3.0 mph 92 % 0.00 in
02:17 54.3 °F 52.0 °F 30.27 in Calm   2.0 mph 92 % 0.00 in
02:22 54.1 °F 51.8 °F 30.27 in Calm   1.0 mph 92 % 0.00 in
02:27 54.1 °F 51.8 °F 30.27 in Calm   2.0 mph 92 % 0.00 in
02:32 54.1 °F 51.8 °F 30.27 in Calm   3.0 mph 92 % 0.00 in
02:37 54.3 °F 52.0 °F 30.27 in SE 1.0 mph 4.0 mph 92 % 0.00 in
02:42 54.3 °F 52.3 °F 30.27 in Calm   4.0 mph 93 % 0.00 in
02:47 54.5 °F 52.5 °F 30.27 in Calm   4.0 mph 93 % 0.00 in
02:52 54.5 °F 52.5 °F 30.27 in Calm   3.0 mph 93 % 0.00 in
02:57 54.7 °F 52.7 °F 30.27 in Calm   2.0 mph 93 % 0.00 in
03:02 54.7 °F 52.7 °F 30.27 in ENE 2.0 mph 3.0 mph 93 % 0.00 in
03:07 54.9 °F 52.9 °F 30.27 in East 1.0 mph 3.0 mph 93 % 0.00 in
03:12 55.0 °F 53.1 °F 30.27 in Calm   3.0 mph 93 % 0.00 in
03:17 55.0 °F 53.1 °F 30.27 in Calm   3.0 mph 93 % 0.00 in
03:22 55.0 °F 53.1 °F 30.27 in Calm   3.0 mph 93 % 0.00 in
03:27 55.0 °F 53.1 °F 30.27 in NNE 1.0 mph 3.0 mph 93 % 0.00 in
03:32 55.0 °F 53.1 °F 30.26 in SE 1.0 mph 2.0 mph 93 % 0.00 in
03:37 55.0 °F 53.1 °F 30.26 in Calm   2.0 mph 93 % 0.00 in
03:42 55.0 °F 53.1 °F 30.26 in East 1.0 mph 3.0 mph 93 % 0.00 in
03:47 55.0 °F 53.1 °F 30.26 in Calm   3.0 mph 93 % 0.00 in
03:52 55.2 °F 53.2 °F 30.26 in Calm   3.0 mph 93 % 0.00 in
03:57 55.2 °F 53.2 °F 30.25 in Calm   3.0 mph 93 % 0.00 in
04:02 55.4 °F 53.4 °F 30.25 in East 1.0 mph 2.0 mph 93 % 0.00 in
04:07 55.2 °F 53.2 °F 30.25 in Calm   2.0 mph 93 % 0.00 in
04:12 55.0 °F 52.7 °F 30.25 in Calm   2.0 mph 92 % 0.00 in
04:17 54.9 °F 52.5 °F 30.25 in Calm   2.0 mph 92 % 0.00 in
04:22 54.7 °F 52.7 °F 30.25 in Calm   1.0 mph 93 % 0.00 in
04:27 54.7 °F 52.7 °F 30.25 in NE 1.0 mph 1.0 mph 93 % 0.00 in
04:32 54.5 °F 52.5 °F 30.25 in Calm   1.0 mph 93 % 0.00 in
04:37 54.5 °F 52.9 °F 30.25 in Calm   1.0 mph 94 % 0.00 in
04:42 54.7 °F 53.1 °F 30.25 in Calm   1.0 mph 94 % 0.00 in
04:47 54.7 °F 53.1 °F 30.25 in ENE 1.0 mph 1.0 mph 94 % 0.00 in
04:52 54.9 °F 53.2 °F 30.25 in East 2.0 mph 2.0 mph 94 % 0.00 in
04:57 54.9 °F 53.2 °F 30.25 in Calm   2.0 mph 94 % 0.00 in
05:02 54.9 °F 53.2 °F 30.25 in Calm   2.0 mph 94 % 0.00 in
05:07 54.9 °F 53.2 °F 30.25 in Calm   2.0 mph 94 % 0.00 in
05:12 54.9 °F 53.2 °F 30.25 in Calm   2.0 mph 94 % 0.00 in
05:17 55.0 °F 53.4 °F 30.25 in East 1.0 mph 3.0 mph 94 % 0.00 in
05:22 55.0 °F 53.4 °F 30.25 in Calm   3.0 mph 94 % 0.00 in
05:27 55.2 °F 53.6 °F 30.25 in Calm   3.0 mph 94 % 0.00 in
05:32 55.2 °F 53.6 °F 30.25 in ESE 2.0 mph 3.0 mph 94 % 0.00 in
05:37 55.6 °F 54.0 °F 30.25 in Calm   3.0 mph 94 % 0.00 in
05:42 55.6 °F 54.0 °F 30.25 in Calm   3.0 mph 94 % 0.00 in
05:48 55.8 °F 54.1 °F 30.25 in Calm   3.0 mph 94 % 0.00 in
05:53 55.9 °F 54.3 °F 30.25 in East 1.0 mph 3.0 mph 94 % 0.00 in
05:58 55.9 °F 54.3 °F 30.25 in Calm   3.0 mph 94 % 0.00 in
06:03 56.1 °F 54.5 °F 30.25 in East 1.0 mph 3.0 mph 94 % 0.00 in
06:08 56.1 °F 54.5 °F 30.25 in ENE 2.0 mph 3.0 mph 94 % 0.00 in
06:13 56.3 °F 54.3 °F 30.25 in ESE 1.0 mph 3.0 mph 93 % 0.00 in
06:18 56.5 °F 54.5 °F 30.25 in Calm   3.0 mph 93 % 0.00 in
06:23 56.5 °F 54.5 °F 30.25 in SE 2.0 mph 4.0 mph 93 % 0.00 in
06:28 56.7 °F 54.7 °F 30.25 in ENE 1.0 mph 4.0 mph 93 % 0.00 in
06:33 56.7 °F 54.7 °F 30.25 in ENE 2.0 mph 4.0 mph 93 % 0.00 in
06:38 56.8 °F 54.9 °F 30.25 in ENE 2.0 mph 3.0 mph 93 % 0.00 in
06:43 56.8 °F 54.9 °F 30.26 in Calm   3.0 mph 93 % 0.00 in
06:48 56.8 °F 54.9 °F 30.26 in ESE 2.0 mph 3.0 mph 93 % 0.00 in
06:53 57.0 °F 55.0 °F 30.26 in East 2.0 mph 4.0 mph 93 % 0.00 in
06:58 57.2 °F 55.2 °F 30.26 in Calm   4.0 mph 93 % 0.00 in
07:03 57.4 °F 55.0 °F 30.26 in Calm   4.0 mph 92 % 0.00 in
07:08 57.4 °F 55.0 °F 30.26 in Calm   3.0 mph 92 % 0.00 in
07:13 57.4 °F 55.0 °F 30.25 in ESE 1.0 mph 5.0 mph 92 % 0.00 in
07:18 57.6 °F 55.2 °F 30.25 in East 1.0 mph 5.0 mph 92 % 0.00 in
07:23 57.7 °F 55.4 °F 30.25 in SSE 3.0 mph 5.0 mph 92 % 0.00 in
07:28 57.7 °F 55.4 °F 30.25 in ESE 5.0 mph 5.0 mph 92 % 0.00 in
07:33 57.7 °F 55.4 °F 30.26 in Calm   6.0 mph 92 % 0.00 in
07:38 57.9 °F 55.6 °F 30.26 in East 1.0 mph 6.0 mph 92 % 0.00 in
07:43 57.9 °F 55.6 °F 30.26 in Calm   6.0 mph 92 % 0.00 in
07:48 57.9 °F 55.6 °F 30.26 in Calm   4.0 mph 92 % 0.00 in
07:53 58.3 °F 55.9 °F 30.26 in Calm   4.0 mph 92 % 0.00 in
07:58 58.3 °F 55.9 °F 30.26 in ENE 1.0 mph 2.0 mph 92 % 0.00 in
08:03 58.5 °F 56.1 °F 30.26 in ESE 2.0 mph 3.0 mph 92 % 0.00 in
08:08 58.5 °F 56.1 °F 30.26 in SE 3.0 mph 3.0 mph 92 % 0.00 in
08:13 58.6 °F 56.3 °F 30.26 in ESE 1.0 mph 4.0 mph 92 % 0.00 in
08:18 58.8 °F 56.5 °F 30.26 in SSE 2.0 mph 5.0 mph 92 % 0.00 in
08:23 59.0 °F 56.7 °F 30.27 in SE 1.0 mph 5.0 mph 92 % 0.00 in
08:28 59.2 °F 56.8 °F 30.27 in ESE 1.0 mph 6.0 mph 92 % 0.00 in
08:33 59.4 °F 57.0 °F 30.27 in ESE 1.0 mph 6.0 mph 92 % 0.00 in
08:38 59.5 °F 57.2 °F 30.27 in Calm   6.0 mph 92 % 0.00 in
08:43 59.7 °F 57.4 °F 30.27 in ESE 3.0 mph 5.0 mph 92 % 0.00 in
08:48 59.9 °F 57.6 °F 30.27 in SE 2.0 mph 6.0 mph 92 % 0.00 in
08:53 60.1 °F 57.7 °F 30.27 in ESE 1.0 mph 6.0 mph 92 % 0.00 in
08:58 60.3 °F 57.9 °F 30.27 in ESE 1.0 mph 6.0 mph 92 % 0.00 in
09:03 60.4 °F 58.1 °F 30.27 in ENE 2.0 mph 6.0 mph 92 % 0.00 in
09:08 60.6 °F 57.9 °F 30.27 in ESE 2.0 mph 6.0 mph 91 % 0.00 in
09:14 61.0 °F 58.3 °F 30.27 in ESE 2.0 mph 4.0 mph 91 % 0.00 in
09:19 61.2 °F 58.5 °F 30.27 in ESE 3.0 mph 4.0 mph 91 % 0.00 in
09:24 61.3 °F 58.6 °F 30.27 in SE 1.0 mph 4.0 mph 91 % 0.00 in
09:29 61.9 °F 59.2 °F 30.27 in ENE 3.0 mph 7.0 mph 91 % 0.00 in
09:34 62.1 °F 59.2 °F 30.27 in ESE 3.0 mph 9.0 mph 90 % 0.00 in
09:39 62.2 °F 59.2 °F 30.28 in SE 1.0 mph 9.0 mph 90 % 0.00 in
09:44 62.6 °F 59.5 °F 30.28 in ESE 3.0 mph 9.0 mph 90 % 0.00 in
09:49 63.0 °F 59.9 °F 30.27 in SE 5.0 mph 8.0 mph 90 % 0.00 in
09:54 63.1 °F 60.1 °F 30.28 in SE 2.0 mph 8.0 mph 90 % 0.00 in
09:59 63.5 °F 60.4 °F 30.28 in SE 2.0 mph 8.0 mph 90 % 0.00 in
10:04 63.7 °F 60.4 °F 30.28 in ESE 3.0 mph 8.0 mph 89 % 0.00 in
10:09 63.9 °F 60.6 °F 30.28 in SE 3.0 mph 8.0 mph 89 % 0.00 in
10:14 64.0 °F 60.8 °F 30.28 in SSE 1.0 mph 8.0 mph 89 % 0.00 in
10:19 64.4 °F 60.8 °F 30.28 in SE 2.0 mph 8.0 mph 88 % 0.00 in
10:24 64.4 °F 60.8 °F 30.28 in NE 2.0 mph 7.0 mph 88 % 0.00 in
10:29 64.8 °F 61.2 °F 30.28 in NE 3.0 mph 7.0 mph 88 % 0.00 in
10:34 64.9 °F 61.3 °F 30.28 in East 3.0 mph 7.0 mph 88 % 0.00 in
10:39 64.9 °F 61.0 °F 30.28 in ENE 2.0 mph 5.0 mph 87 % 0.00 in
10:44 65.1 °F 61.2 °F 30.28 in East 1.0 mph 5.0 mph 87 % 0.00 in
10:49 65.3 °F 61.7 °F 30.28 in Calm   6.0 mph 88 % 0.00 in
10:54 65.7 °F 62.1 °F 30.28 in ESE 3.0 mph 6.0 mph 88 % 0.00 in
10:59 65.8 °F 61.9 °F 30.28 in Calm   6.0 mph 87 % 0.00 in
11:04 66.0 °F 62.1 °F 30.28 in East 4.0 mph 5.0 mph 87 % 0.00 in
11:09 66.4 °F 62.4 °F 30.28 in East 1.0 mph 5.0 mph 87 % 0.00 in
11:14 66.6 °F 62.2 °F 30.28 in Calm   5.0 mph 86 % 0.00 in
11:19 67.1 °F 63.1 °F 30.28 in SSE 1.0 mph 5.0 mph 87 % 0.00 in
11:24 67.6 °F 63.0 °F 30.28 in ESE 3.0 mph 5.0 mph 85 % 0.00 in
11:29 68.0 °F 63.3 °F 30.28 in ESE 6.0 mph 8.0 mph 85 % 0.00 in
11:34 68.4 °F 63.3 °F 30.28 in SE 4.0 mph 8.0 mph 84 % 0.00 in
11:39 68.5 °F 63.5 °F 30.27 in ESE 6.0 mph 8.0 mph 84 % 0.00 in
11:44 69.1 °F 64.0 °F 30.27 in SE 2.0 mph 9.0 mph 84 % 0.00 in
11:49 69.8 °F 64.0 °F 30.27 in East 13.0 mph 13.0 mph 82 % 0.00 in
11:54 70.0 °F 64.2 °F 30.27 in ENE 3.0 mph 13.0 mph 82 % 0.00 in
11:59 70.2 °F 64.0 °F 30.27 in ESE 6.0 mph 13.0 mph 81 % 0.00 in
12:04 70.3 °F 64.2 °F 30.27 in SSE 5.0 mph 13.0 mph 81 % 0.00 in
12:09 70.5 °F 64.4 °F 30.27 in ESE 5.0 mph 10.0 mph 81 % 0.00 in
12:14 70.9 °F 64.0 °F 30.27 in SE 8.0 mph 10.0 mph 79 % 0.00 in
12:19 71.1 °F 64.6 °F 30.27 in ESE 4.0 mph 12.0 mph 80 % 0.00 in
12:24 71.1 °F 64.2 °F 30.27 in ENE 3.0 mph 13.0 mph 79 % 0.00 in
12:29 71.1 °F 64.2 °F 30.26 in SE 7.0 mph 13.0 mph 79 % 0.00 in
12:34 71.4 °F 64.9 °F 30.26 in SSE 4.0 mph 13.0 mph 80 % 0.00 in
12:39 71.4 °F 64.6 °F 30.26 in North 1.0 mph 12.0 mph 79 % 0.00 in
12:40 71.4 °F 64.6 °F 30.26 in SW 1.0 mph 12.0 mph 79 % 0.00 in
12:44 71.8 °F 64.9 °F 30.25 in ESE 4.0 mph 12.0 mph 79 % 0.00 in
12:49 72.1 °F 64.9 °F 30.25 in SE 3.0 mph 11.0 mph 78 % 0.00 in
12:54 72.3 °F 65.1 °F 30.25 in SE 3.0 mph 12.0 mph 78 % 0.00 in
13:00 72.3 °F 64.8 °F 30.25 in SSE 4.0 mph 12.0 mph 77 % 0.00 in
13:05 72.5 °F 65.3 °F 30.25 in SSE 4.0 mph 12.0 mph 78 % 0.00 in
13:10 72.5 °F 64.9 °F 30.25 in SSE 4.0 mph 9.0 mph 77 % 0.00 in
13:15 72.1 °F 64.6 °F 30.25 in ESE 3.0 mph 9.0 mph 77 % 0.00 in
13:20 72.0 °F 64.8 °F 30.24 in ESE 7.0 mph 13.0 mph 78 % 0.00 in
13:25 72.3 °F 65.1 °F 30.24 in ESE 4.0 mph 14.0 mph 78 % 0.00 in
13:30 72.5 °F 64.9 °F 30.23 in SSE 5.0 mph 14.0 mph 77 % 0.00 in
13:35 72.7 °F 65.1 °F 30.23 in East 3.0 mph 14.0 mph 77 % 0.00 in
13:40 72.9 °F 65.7 °F 30.23 in ESE 6.0 mph 12.0 mph 78 % 0.00 in
13:41 72.9 °F 65.3 °F 30.23 in SE 8.0 mph 12.0 mph 77 % 0.00 in
13:46 72.5 °F 64.9 °F 30.22 in ESE 4.0 mph 12.0 mph 77 % 0.00 in
13:51 72.7 °F 65.5 °F 30.22 in South 3.0 mph 12.0 mph 78 % 0.00 in
13:56 73.0 °F 64.9 °F 30.22 in SE 8.0 mph 15.0 mph 76 % 0.00 in
14:01 72.7 °F 65.1 °F 30.22 in SSE 5.0 mph 15.0 mph 77 % 0.00 in
14:06 72.7 °F 65.5 °F 30.22 in SE 9.0 mph 15.0 mph 78 % 0.00 in
14:11 72.7 °F 65.5 °F 30.21 in ESE 7.0 mph 13.0 mph 78 % 0.00 in
14:16 72.7 °F 65.5 °F 30.21 in SE 4.0 mph 12.0 mph 78 % 0.00 in
14:21 72.9 °F 65.3 °F 30.20 in SE 5.0 mph 14.0 mph 77 % 0.00 in
14:26 72.9 °F 65.3 °F 30.20 in SE 4.0 mph 14.0 mph 77 % 0.00 in
14:31 72.7 °F 65.1 °F 30.20 in SSE 8.0 mph 14.0 mph 77 % 0.00 in
14:36 72.7 °F 65.8 °F 30.20 in SE 3.0 mph 11.0 mph 79 % 0.00 in
14:41 73.4 °F 65.7 °F 30.19 in East 6.0 mph 11.0 mph 77 % 0.00 in
14:46 73.9 °F 66.6 °F 30.19 in SE 2.0 mph 12.0 mph 78 % 0.00 in
14:51 74.1 °F 65.7 °F 30.19 in ENE 7.0 mph 12.0 mph 75 % 0.00 in
14:56 73.8 °F 65.3 °F 30.19 in SSE 6.0 mph 12.0 mph 75 % 0.00 in
15:01 73.8 °F 65.7 °F 30.19 in East 7.0 mph 11.0 mph 76 % 0.00 in
15:06 73.9 °F 65.8 °F 30.19 in East 8.0 mph 11.0 mph 76 % 0.00 in
15:11 73.9 °F 65.8 °F 30.19 in East 4.0 mph 11.0 mph 76 % 0.00 in
15:16 73.6 °F 65.5 °F 30.19 in ESE 4.0 mph 11.0 mph 76 % 0.00 in
15:21 73.0 °F 65.5 °F 30.18 in South 5.0 mph 12.0 mph 77 % 0.00 in
15:26 72.9 °F 65.7 °F 30.18 in SE 3.0 mph 12.0 mph 78 % 0.00 in
15:31 72.7 °F 65.5 °F 30.18 in ESE 6.0 mph 12.0 mph 78 % 0.00 in
15:36 72.3 °F 65.5 °F 30.18 in SSW 8.0 mph 11.0 mph 79 % 0.00 in
15:41 72.5 °F 65.7 °F 30.17 in ENE 6.0 mph 14.0 mph 79 % 0.00 in
15:46 72.7 °F 65.8 °F 30.17 in SW 6.0 mph 14.0 mph 79 % 0.00 in
15:51 72.3 °F 65.5 °F 30.17 in SSE 1.0 mph 14.0 mph 79 % 0.00 in
15:56 72.3 °F 65.8 °F 30.17 in ESE 7.0 mph 13.0 mph 80 % 0.00 in
16:02 72.7 °F 66.2 °F 30.17 in East 11.0 mph 13.0 mph 80 % 0.00 in
16:07 72.5 °F 65.7 °F 30.17 in ENE 10.0 mph 12.0 mph 79 % 0.00 in
16:12 72.5 °F 66.0 °F 30.17 in East 8.0 mph 12.0 mph 80 % 0.00 in
16:13 72.5 °F 66.0 °F 30.17 in SE 6.0 mph 12.0 mph 80 % 0.00 in
16:18 72.9 °F 65.7 °F 30.17 in SE 4.0 mph 12.0 mph 78 % 0.00 in
16:23 73.2 °F 65.7 °F 30.17 in East 11.0 mph 13.0 mph 77 % 0.00 in
16:28 73.8 °F 65.7 °F 30.17 in SE 3.0 mph 13.0 mph 76 % 0.00 in
16:33 74.1 °F 65.7 °F 30.16 in South 6.0 mph 15.0 mph 75 % 0.00 in
16:34 74.1 °F 65.7 °F 30.16 in SSE 6.0 mph 15.0 mph 75 % 0.00 in
16:39 73.9 °F 65.1 °F 30.16 in SSE 7.0 mph 15.0 mph 74 % 0.00 in
16:44 73.9 °F 65.5 °F 30.16 in SSW 5.0 mph 15.0 mph 75 % 0.00 in
16:49 73.8 °F 65.3 °F 30.16 in SE 7.0 mph 12.0 mph 75 % 0.00 in
16:54 73.6 °F 65.5 °F 30.16 in East 2.0 mph 12.0 mph 76 % 0.00 in
16:59 73.6 °F 65.5 °F 30.16 in SE 3.0 mph 9.0 mph 76 % 0.00 in
17:04 73.2 °F 65.1 °F 30.16 in SSE 8.0 mph 9.0 mph 76 % 0.00 in
17:09 73.6 °F 65.5 °F 30.16 in SE 7.0 mph 11.0 mph 76 % 0.00 in
17:14 73.6 °F 65.5 °F 30.16 in South 6.0 mph 11.0 mph 76 % 0.00 in
17:19 73.8 °F 65.7 °F 30.16 in SSE 10.0 mph 11.0 mph 76 % 0.00 in
17:24 73.9 °F 65.5 °F 30.16 in ESE 7.0 mph 13.0 mph 75 % 0.00 in
17:29 74.1 °F 65.7 °F 30.16 in SE 6.0 mph 13.0 mph 75 % 0.00 in
17:34 74.3 °F 65.8 °F 30.15 in ESE 8.0 mph 13.0 mph 75 % 0.00 in
17:39 74.1 °F 65.7 °F 30.15 in SSE 7.0 mph 13.0 mph 75 % 0.00 in
17:44 74.1 °F 65.7 °F 30.15 in SE 4.0 mph 13.0 mph 75 % 0.00 in
17:50 74.1 °F 65.7 °F 30.15 in SE 10.0 mph 15.0 mph 75 % 0.00 in
17:55 73.9 °F 65.5 °F 30.15 in SSW 5.0 mph 15.0 mph 75 % 0.00 in
18:00 73.9 °F 65.5 °F 30.15 in SSE 4.0 mph 15.0 mph 75 % 0.00 in
18:05 73.9 °F 65.5 °F 30.15 in ESE 8.0 mph 13.0 mph 75 % 0.00 in
18:10 73.8 °F 65.7 °F 30.15 in East 11.0 mph 14.0 mph 76 % 0.00 in
18:15 73.6 °F 65.5 °F 30.15 in SE 6.0 mph 14.0 mph 76 % 0.00 in
18:20 73.2 °F 65.1 °F 30.15 in ESE 10.0 mph 14.0 mph 76 % 0.00 in
18:25 73.2 °F 65.1 °F 30.15 in SSW 6.0 mph 15.0 mph 76 % 0.00 in
18:30 73.2 °F 65.1 °F 30.15 in SE 4.0 mph 15.0 mph 76 % 0.00 in
18:35 73.0 °F 64.9 °F 30.15 in SE 12.0 mph 15.0 mph 76 % 0.00 in
18:40 72.9 °F 65.3 °F 30.14 in East 13.0 mph 14.0 mph 77 % 0.00 in
18:45 72.7 °F 65.1 °F 30.15 in SSE 7.0 mph 14.0 mph 77 % 0.00 in
18:50 72.3 °F 65.1 °F 30.15 in ESE 10.0 mph 14.0 mph 78 % 0.00 in
18:55 72.1 °F 64.9 °F 30.15 in South 9.0 mph 15.0 mph 78 % 0.00 in
19:00 72.0 °F 64.8 °F 30.15 in SSE 7.0 mph 16.0 mph 78 % 0.00 in
19:05 72.0 °F 64.8 °F 30.15 in SSW 9.0 mph 16.0 mph 78 % 0.00 in
19:10 71.8 °F 64.9 °F 30.15 in SE 9.0 mph 16.0 mph 79 % 0.00 in
19:15 71.6 °F 64.8 °F 30.15 in SSE 5.0 mph 16.0 mph 79 % 0.00 in
19:20 71.4 °F 64.9 °F 30.15 in SE 4.0 mph 16.0 mph 80 % 0.00 in
19:25 71.2 °F 64.8 °F 30.15 in South 8.0 mph 12.0 mph 80 % 0.00 in
19:30 71.1 °F 64.9 °F 30.15 in South 4.0 mph 12.0 mph 81 % 0.00 in
19:35 70.9 °F 64.8 °F 30.15 in South 7.0 mph 14.0 mph 81 % 0.00 in
19:40 70.7 °F 64.9 °F 30.15 in ESE 7.0 mph 15.0 mph 82 % 0.00 in
19:45 70.5 °F 64.8 °F 30.15 in SE 6.0 mph 15.0 mph 82 % 0.00 in
19:50 70.5 °F 64.8 °F 30.15 in SSE 5.0 mph 15.0 mph 82 % 0.00 in
19:55 70.3 °F 64.6 °F 30.15 in SSE 5.0 mph 13.0 mph 82 % 0.00 in
20:00 70.3 °F 64.9 °F 30.15 in SSW 5.0 mph 13.0 mph 83 % 0.00 in
20:05 70.2 °F 64.8 °F 30.15 in SSE 8.0 mph 13.0 mph 83 % 0.00 in
20:10 70.0 °F 64.6 °F 30.16 in SSE 2.0 mph 12.0 mph 83 % 0.00 in
20:15 70.0 °F 64.9 °F 30.16 in SE 3.0 mph 12.0 mph 84 % 0.00 in
20:20 70.0 °F 64.9 °F 30.15 in SSW 6.0 mph 12.0 mph 84 % 0.00 in
20:25 69.6 °F 64.6 °F 30.15 in SE 5.0 mph 10.0 mph 84 % 0.00 in
20:30 69.6 °F 64.9 °F 30.15 in ESE 5.0 mph 12.0 mph 85 % 0.00 in
20:35 69.4 °F 64.8 °F 30.15 in ESE 13.0 mph 13.0 mph 85 % 0.00 in
20:40 69.4 °F 64.8 °F 30.15 in SSE 6.0 mph 13.0 mph 85 % 0.00 in
20:45 69.3 °F 64.9 °F 30.15 in SE 6.0 mph 13.0 mph 86 % 0.00 in
20:51 69.3 °F 64.9 °F 30.15 in SSE 3.0 mph 13.0 mph 86 % 0.00 in
20:55 68.9 °F 64.6 °F 30.16 in SE 4.0 mph 11.0 mph 86 % 0.00 in
21:00 68.7 °F 64.8 °F 30.16 in SE 10.0 mph 11.0 mph 87 % 0.00 in
21:06 68.7 °F 64.8 °F 30.16 in ESE 9.0 mph 11.0 mph 87 % 0.00 in
21:11 68.7 °F 64.8 °F 30.17 in SSE 5.0 mph 10.0 mph 87 % 0.00 in
21:16 68.5 °F 64.6 °F 30.17 in SSE 4.0 mph 10.0 mph 87 % 0.00 in
21:21 68.5 °F 64.6 °F 30.17 in SE 7.0 mph 10.0 mph 87 % 0.00 in
21:26 68.5 °F 64.8 °F 30.16 in SSE 5.0 mph 11.0 mph 88 % 0.00 in
21:31 68.5 °F 64.8 °F 30.17 in SE 5.0 mph 11.0 mph 88 % 0.00 in
21:36 68.4 °F 64.6 °F 30.17 in SE 8.0 mph 12.0 mph 88 % 0.00 in
21:41 68.4 °F 64.6 °F 30.17 in ESE 5.0 mph 12.0 mph 88 % 0.00 in
21:46 68.4 °F 64.6 °F 30.17 in SE 6.0 mph 12.0 mph 88 % 0.00 in
21:51 68.4 °F 64.6 °F 30.17 in South 4.0 mph 11.0 mph 88 % 0.00 in
21:56 68.2 °F 64.8 °F 30.17 in SSE 4.0 mph 11.0 mph 89 % 0.00 in
22:01 68.2 °F 64.8 °F 30.17 in SE 4.0 mph 10.0 mph 89 % 0.00 in
22:06 68.2 °F 64.8 °F 30.17 in SE 4.0 mph 10.0 mph 89 % 0.00 in
22:11 68.2 °F 64.8 °F 30.17 in ESE 7.0 mph 9.0 mph 89 % 0.00 in
22:16 68.2 °F 64.8 °F 30.17 in SSW 4.0 mph 9.0 mph 89 % 0.00 in
22:21 68.2 °F 64.8 °F 30.17 in SSW 2.0 mph 10.0 mph 89 % 0.00 in
22:26 68.0 °F 64.9 °F 30.17 in SE 6.0 mph 10.0 mph 90 % 0.00 in
22:31 68.0 °F 64.9 °F 30.17 in SSE 4.0 mph 10.0 mph 90 % 0.00 in
22:36 68.2 °F 65.1 °F 30.17 in SSW 2.0 mph 11.0 mph 90 % 0.00 in
22:41 68.2 °F 65.1 °F 30.17 in SE 7.0 mph 11.0 mph 90 % 0.00 in
22:46 68.2 °F 65.1 °F 30.17 in SSE 7.0 mph 11.0 mph 90 % 0.00 in
22:51 68.4 °F 65.3 °F 30.17 in ESE 9.0 mph 10.0 mph 90 % 0.00 in
22:56 68.4 °F 65.3 °F 30.18 in SE 5.0 mph 11.0 mph 90 % 0.00 in
23:01 68.4 °F 64.9 °F 30.17 in South 5.0 mph 11.0 mph 89 % 0.00 in
23:06 68.5 °F 65.1 °F 30.17 in SSE 8.0 mph 12.0 mph 89 % 0.00 in
23:11 68.5 °F 65.1 °F 30.17 in ESE 9.0 mph 13.0 mph 89 % 0.00 in
23:16 68.5 °F 65.1 °F 30.17 in SSE 6.0 mph 13.0 mph 89 % 0.00 in
23:21 68.7 °F 65.3 °F 30.18 in SSE 4.0 mph 13.0 mph 89 % 0.00 in
23:26 68.7 °F 65.3 °F 30.17 in ESE 8.0 mph 13.0 mph 89 % 0.00 in
23:31 68.7 °F 65.3 °F 30.17 in SSE 7.0 mph 13.0 mph 89 % 0.00 in
23:36 68.5 °F 65.1 °F 30.17 in SSE 4.0 mph 13.0 mph 89 % 0.00 in
23:41 68.5 °F 65.1 °F 30.17 in South 6.0 mph 13.0 mph 89 % 0.00 in
23:46 68.4 °F 64.9 °F 30.17 in SSW 5.0 mph 13.0 mph 89 % 0.00 in
23:51 68.4 °F 64.9 °F 30.17 in South 7.0 mph 13.0 mph 89 % 0.00 in
23:57 68.2 °F 64.8 °F 30.17 in South 5.0 mph 12.0 mph 89 % 0.00 in
Spring, Texas: Villages of Bridgestone
Compliments of Weather Underground - 2.75 mb

Script developed by  Jim McMurry - jmcmurry@mwt.net Adapted for the template by  Wim van der Kuil - Leuven-Template.eu

You find our weather info also at:

UK Metoffice

WeatherCloud

Weather Underground

Mid-South Weather Network

AWEKAS

Citizen Weather Observer Program (CWOP)

HAMweather, WeatherForYou, PWS Weather

Equipment we use:

Weather-station
Davis Vantage Vue

Weather-program
Meteohub

Weather-server
Debian 7.9 x86 (Guest)

Provider
DreamHost

Davis Vantage Vue

Meteohub

Debian 7.9 x86 (Guest)

DreamHost